sensor_id;sensor_type;location;lat;lon;timestamp;P1;durP1;ratioP1;P2;durP2;ratioP2
13785;SDS011;47474;48.824;9.384;2023-04-03T00:00:26;2.93;;;2.37;;
13785;SDS011;47474;48.824;9.384;2023-04-03T00:02:53;5.17;;;2.67;;
13785;SDS011;47474;48.824;9.384;2023-04-03T00:05:19;2.93;;;2.53;;
13785;SDS011;47474;48.824;9.384;2023-04-03T00:07:46;5.07;;;2.63;;
13785;SDS011;47474;48.824;9.384;2023-04-03T00:10:12;2.77;;;2.30;;
13785;SDS011;47474;48.824;9.384;2023-04-03T00:12:40;2.50;;;2.30;;
13785;SDS011;47474;48.824;9.384;2023-04-03T00:15:07;2.43;;;2.23;;
13785;SDS011;47474;48.824;9.384;2023-04-03T00:17:35;3.07;;;2.53;;
13785;SDS011;47474;48.824;9.384;2023-04-03T00:20:02;3.20;;;2.47;;
13785;SDS011;47474;48.824;9.384;2023-04-03T00:22:29;3.50;;;2.47;;
13785;SDS011;47474;48.824;9.384;2023-04-03T00:24:55;3.27;;;2.77;;
13785;SDS011;47474;48.824;9.384;2023-04-03T00:27:22;2.60;;;2.40;;
13785;SDS011;47474;48.824;9.384;2023-04-03T00:29:48;3.00;;;2.60;;
13785;SDS011;47474;48.824;9.384;2023-04-03T00:32:15;3.97;;;2.60;;
13785;SDS011;47474;48.824;9.384;2023-04-03T00:34:43;3.70;;;2.40;;
13785;SDS011;47474;48.824;9.384;2023-04-03T00:37:09;2.80;;;2.50;;
13785;SDS011;47474;48.824;9.384;2023-04-03T00:39:36;2.90;;;2.60;;
13785;SDS011;47474;48.824;9.384;2023-04-03T00:42:02;5.57;;;2.73;;
13785;SDS011;47474;48.824;9.384;2023-04-03T00:47:33;4.70;;;2.60;;
13785;SDS011;47474;48.824;9.384;2023-04-03T00:50:01;2.50;;;2.30;;
13785;SDS011;47474;48.824;9.384;2023-04-03T00:52:28;2.60;;;2.40;;
13785;SDS011;47474;48.824;9.384;2023-04-03T00:54:57;2.50;;;2.30;;
13785;SDS011;47474;48.824;9.384;2023-04-03T00:57:26;2.20;;;2.00;;
13785;SDS011;47474;48.824;9.384;2023-04-03T00:59:53;2.83;;;2.20;;
13785;SDS011;47474;48.824;9.384;2023-04-03T01:02:21;2.63;;;2.37;;
13785;SDS011;47474;48.824;9.384;2023-04-03T01:04:47;2.73;;;2.40;;
13785;SDS011;47474;48.824;9.384;2023-04-03T01:07:16;3.83;;;2.47;;
13785;SDS011;47474;48.824;9.384;2023-04-03T01:09:45;3.47;;;2.30;;
13785;SDS011;47474;48.824;9.384;2023-04-03T01:12:14;3.00;;;2.33;;
13785;SDS011;47474;48.824;9.384;2023-04-03T01:14:41;3.30;;;2.70;;
13785;SDS011;47474;48.824;9.384;2023-04-03T01:19:53;3.03;;;2.70;;
13785;SDS011;47474;48.824;9.384;2023-04-03T01:22:30;3.40;;;2.60;;
13785;SDS011;47474;48.824;9.384;2023-04-03T01:25:02;2.93;;;2.20;;
13785;SDS011;47474;48.824;9.384;2023-04-03T01:27:28;2.47;;;2.27;;
13785;SDS011;47474;48.824;9.384;2023-04-03T01:29:55;3.77;;;2.77;;
13785;SDS011;47474;48.824;9.384;2023-04-03T01:32:23;2.90;;;2.60;;
13785;SDS011;47474;48.824;9.384;2023-04-03T01:34:49;3.07;;;2.77;;
13785;SDS011;47474;48.824;9.384;2023-04-03T01:37:16;2.43;;;2.17;;
13785;SDS011;47474;48.824;9.384;2023-04-03T01:39:42;2.80;;;2.27;;
13785;SDS011;47474;48.824;9.384;2023-04-03T01:42:09;2.53;;;2.33;;
13785;SDS011;47474;48.824;9.384;2023-04-03T01:44:36;2.57;;;2.10;;
13785;SDS011;47474;48.824;9.384;2023-04-03T01:47:04;3.33;;;2.53;;
13785;SDS011;47474;48.824;9.384;2023-04-03T01:49:33;2.80;;;2.60;;
13785;SDS011;47474;48.824;9.384;2023-04-03T01:51:59;3.17;;;2.60;;
13785;SDS011;47474;48.824;9.384;2023-04-03T01:54:26;3.27;;;2.70;;
13785;SDS011;47474;48.824;9.384;2023-04-03T01:56:52;4.00;;;2.63;;
13785;SDS011;47474;48.824;9.384;2023-04-03T01:59:19;4.33;;;2.23;;
13785;SDS011;47474;48.824;9.384;2023-04-03T02:01:45;2.30;;;2.10;;
13785;SDS011;47474;48.824;9.384;2023-04-03T02:04:12;2.33;;;2.13;;
13785;SDS011;47474;48.824;9.384;2023-04-03T02:06:40;3.20;;;2.10;;
13785;SDS011;47474;48.824;9.384;2023-04-03T02:09:07;2.30;;;2.10;;
13785;SDS011;47474;48.824;9.384;2023-04-03T02:11:33;2.50;;;2.30;;
13785;SDS011;47474;48.824;9.384;2023-04-03T02:13:59;2.33;;;2.10;;
13785;SDS011;47474;48.824;9.384;2023-04-03T02:16:26;3.93;;;2.40;;
13785;SDS011;47474;48.824;9.384;2023-04-03T02:18:53;3.73;;;2.10;;
13785;SDS011;47474;48.824;9.384;2023-04-03T02:21:20;2.30;;;2.07;;
13785;SDS011;47474;48.824;9.384;2023-04-03T02:23:48;2.77;;;2.30;;
13785;SDS011;47474;48.824;9.384;2023-04-03T02:26:15;2.80;;;2.53;;
13785;SDS011;47474;48.824;9.384;2023-04-03T02:28:42;4.37;;;2.30;;
13785;SDS011;47474;48.824;9.384;2023-04-03T02:31:09;2.23;;;1.97;;
13785;SDS011;47474;48.824;9.384;2023-04-03T02:33:36;2.40;;;1.90;;
13785;SDS011;47474;48.824;9.384;2023-04-03T02:36:03;2.27;;;2.07;;
13785;SDS011;47474;48.824;9.384;2023-04-03T02:38:31;3.47;;;2.10;;
13785;SDS011;47474;48.824;9.384;2023-04-03T02:41:00;2.53;;;2.30;;
13785;SDS011;47474;48.824;9.384;2023-04-03T02:43:27;2.73;;;2.20;;
13785;SDS011;47474;48.824;9.384;2023-04-03T02:45:54;2.57;;;2.10;;
13785;SDS011;47474;48.824;9.384;2023-04-03T02:48:21;2.70;;;2.33;;
13785;SDS011;47474;48.824;9.384;2023-04-03T02:50:47;2.23;;;2.00;;
13785;SDS011;47474;48.824;9.384;2023-04-03T02:53:14;2.63;;;2.20;;
13785;SDS011;47474;48.824;9.384;2023-04-03T02:55:41;2.17;;;1.97;;
13785;SDS011;47474;48.824;9.384;2023-04-03T02:58:09;3.43;;;2.43;;
13785;SDS011;47474;48.824;9.384;2023-04-03T03:00:35;2.27;;;2.07;;
13785;SDS011;47474;48.824;9.384;2023-04-03T03:03:02;3.97;;;2.47;;
13785;SDS011;47474;48.824;9.384;2023-04-03T03:05:29;2.10;;;1.93;;
13785;SDS011;47474;48.824;9.384;2023-04-03T03:07:56;2.33;;;2.13;;
13785;SDS011;47474;48.824;9.384;2023-04-03T03:10:22;2.60;;;2.40;;
13785;SDS011;47474;48.824;9.384;2023-04-03T03:12:49;3.27;;;2.23;;
13785;SDS011;47474;48.824;9.384;2023-04-03T03:15:17;3.03;;;2.30;;
13785;SDS011;47474;48.824;9.384;2023-04-03T03:17:44;3.80;;;2.23;;
13785;SDS011;47474;48.824;9.384;2023-04-03T03:20:11;4.37;;;2.03;;
13785;SDS011;47474;48.824;9.384;2023-04-03T03:22:39;3.17;;;2.00;;
13785;SDS011;47474;48.824;9.384;2023-04-03T03:25:05;2.77;;;2.10;;
13785;SDS011;47474;48.824;9.384;2023-04-03T03:27:32;2.57;;;2.10;;
13785;SDS011;47474;48.824;9.384;2023-04-03T03:29:59;4.40;;;2.33;;
13785;SDS011;47474;48.824;9.384;2023-04-03T03:32:27;4.07;;;2.00;;
13785;SDS011;47474;48.824;9.384;2023-04-03T03:34:54;2.30;;;2.00;;
13785;SDS011;47474;48.824;9.384;2023-04-03T03:37:20;3.33;;;2.17;;
13785;SDS011;47474;48.824;9.384;2023-04-03T03:39:46;6.50;;;2.10;;
13785;SDS011;47474;48.824;9.384;2023-04-03T03:42:13;2.40;;;2.20;;
13785;SDS011;47474;48.824;9.384;2023-04-03T03:44:40;2.13;;;1.90;;
13785;SDS011;47474;48.824;9.384;2023-04-03T03:47:07;2.07;;;1.97;;
13785;SDS011;47474;48.824;9.384;2023-04-03T03:49:37;3.80;;;2.00;;
13785;SDS011;47474;48.824;9.384;2023-04-03T03:52:03;3.20;;;2.03;;
13785;SDS011;47474;48.824;9.384;2023-04-03T03:54:30;2.20;;;2.00;;
13785;SDS011;47474;48.824;9.384;2023-04-03T03:56:56;2.00;;;1.90;;
13785;SDS011;47474;48.824;9.384;2023-04-03T03:59:23;2.73;;;2.47;;
13785;SDS011;47474;48.824;9.384;2023-04-03T04:01:49;2.20;;;2.00;;
13785;SDS011;47474;48.824;9.384;2023-04-03T04:04:16;2.57;;;2.17;;
13785;SDS011;47474;48.824;9.384;2023-04-03T04:06:44;2.50;;;2.10;;
13785;SDS011;47474;48.824;9.384;2023-04-03T04:09:10;2.40;;;2.20;;
13785;SDS011;47474;48.824;9.384;2023-04-03T04:11:37;2.10;;;1.90;;
13785;SDS011;47474;48.824;9.384;2023-04-03T04:14:04;3.63;;;1.97;;
13785;SDS011;47474;48.824;9.384;2023-04-03T04:16:31;3.70;;;2.00;;
13785;SDS011;47474;48.824;9.384;2023-04-03T04:18:57;2.40;;;1.70;;
13785;SDS011;47474;48.824;9.384;2023-04-03T04:21:24;2.17;;;1.70;;
13785;SDS011;47474;48.824;9.384;2023-04-03T04:23:52;2.23;;;2.00;;
13785;SDS011;47474;48.824;9.384;2023-04-03T04:26:18;3.17;;;2.17;;
13785;SDS011;47474;48.824;9.384;2023-04-03T04:28:45;2.10;;;1.90;;
13785;SDS011;47474;48.824;9.384;2023-04-03T04:31:11;2.53;;;2.00;;
13785;SDS011;47474;48.824;9.384;2023-04-03T04:33:38;2.20;;;2.00;;
13785;SDS011;47474;48.824;9.384;2023-04-03T04:36:05;3.10;;;2.10;;
13785;SDS011;47474;48.824;9.384;2023-04-03T04:38:32;2.10;;;1.77;;
13785;SDS011;47474;48.824;9.384;2023-04-03T04:40:59;2.10;;;1.90;;
13785;SDS011;47474;48.824;9.384;2023-04-03T04:43:26;2.10;;;1.90;;
13785;SDS011;47474;48.824;9.384;2023-04-03T04:46:00;2.33;;;2.13;;
13785;SDS011;47474;48.824;9.384;2023-04-03T04:48:27;2.40;;;2.03;;
13785;SDS011;47474;48.824;9.384;2023-04-03T04:50:54;2.87;;;2.03;;
13785;SDS011;47474;48.824;9.384;2023-04-03T04:53:20;2.07;;;1.93;;
13785;SDS011;47474;48.824;9.384;2023-04-03T04:55:50;1.90;;;1.70;;
13785;SDS011;47474;48.824;9.384;2023-04-03T04:58:18;3.40;;;1.80;;
13785;SDS011;47474;48.824;9.384;2023-04-03T05:00:45;1.90;;;1.80;;
13785;SDS011;47474;48.824;9.384;2023-04-03T05:03:11;2.37;;;2.10;;
13785;SDS011;47474;48.824;9.384;2023-04-03T05:05:38;2.67;;;1.70;;
13785;SDS011;47474;48.824;9.384;2023-04-03T05:08:05;2.60;;;1.90;;
13785;SDS011;47474;48.824;9.384;2023-04-03T05:10:33;2.37;;;1.87;;
13785;SDS011;47474;48.824;9.384;2023-04-03T05:13:00;3.93;;;2.23;;
13785;SDS011;47474;48.824;9.384;2023-04-03T05:15:28;2.70;;;2.00;;
13785;SDS011;47474;48.824;9.384;2023-04-03T05:17:54;3.30;;;1.87;;
13785;SDS011;47474;48.824;9.384;2023-04-03T05:20:21;2.83;;;2.00;;
13785;SDS011;47474;48.824;9.384;2023-04-03T05:22:47;2.57;;;1.90;;
13785;SDS011;47474;48.824;9.384;2023-04-03T05:25:14;2.00;;;1.80;;
13785;SDS011;47474;48.824;9.384;2023-04-03T05:27:40;2.17;;;1.97;;
13785;SDS011;47474;48.824;9.384;2023-04-03T05:30:07;1.90;;;1.80;;
13785;SDS011;47474;48.824;9.384;2023-04-03T05:32:36;3.10;;;1.83;;
13785;SDS011;47474;48.824;9.384;2023-04-03T05:35:02;3.13;;;2.00;;
13785;SDS011;47474;48.824;9.384;2023-04-03T05:37:29;2.47;;;2.00;;
13785;SDS011;47474;48.824;9.384;2023-04-03T05:39:56;3.90;;;2.30;;
13785;SDS011;47474;48.824;9.384;2023-04-03T05:42:22;2.70;;;2.00;;
13785;SDS011;47474;48.824;9.384;2023-04-03T05:44:49;2.30;;;2.10;;
13785;SDS011;47474;48.824;9.384;2023-04-03T05:47:15;1.90;;;1.80;;
13785;SDS011;47474;48.824;9.384;2023-04-03T05:49:43;2.20;;;2.00;;
13785;SDS011;47474;48.824;9.384;2023-04-03T05:52:11;2.47;;;2.27;;
13785;SDS011;47474;48.824;9.384;2023-04-03T05:54:44;3.20;;;2.00;;
13785;SDS011;47474;48.824;9.384;2023-04-03T05:57:13;2.00;;;1.70;;
13785;SDS011;47474;48.824;9.384;2023-04-03T05:59:39;2.63;;;2.17;;
13785;SDS011;47474;48.824;9.384;2023-04-03T06:02:06;2.63;;;2.10;;
13785;SDS011;47474;48.824;9.384;2023-04-03T06:04:32;2.77;;;2.03;;
13785;SDS011;47474;48.824;9.384;2023-04-03T06:07:00;2.30;;;1.90;;
13785;SDS011;47474;48.824;9.384;2023-04-03T06:09:27;2.57;;;1.97;;
13785;SDS011;47474;48.824;9.384;2023-04-03T06:11:55;2.20;;;1.97;;
13785;SDS011;47474;48.824;9.384;2023-04-03T06:14:23;3.07;;;1.90;;
13785;SDS011;47474;48.824;9.384;2023-04-03T06:16:50;2.83;;;2.00;;
13785;SDS011;47474;48.824;9.384;2023-04-03T06:19:17;2.90;;;2.27;;
13785;SDS011;47474;48.824;9.384;2023-04-03T06:21:44;2.90;;;2.30;;
13785;SDS011;47474;48.824;9.384;2023-04-03T06:24:12;3.53;;;2.93;;
13785;SDS011;47474;48.824;9.384;2023-04-03T06:26:40;2.77;;;2.10;;
13785;SDS011;47474;48.824;9.384;2023-04-03T06:29:07;2.73;;;2.00;;
13785;SDS011;47474;48.824;9.384;2023-04-03T06:31:34;4.20;;;2.03;;
13785;SDS011;47474;48.824;9.384;2023-04-03T06:34:01;2.83;;;2.10;;
13785;SDS011;47474;48.824;9.384;2023-04-03T06:36:28;2.40;;;2.20;;
13785;SDS011;47474;48.824;9.384;2023-04-03T06:38:54;2.10;;;1.90;;
13785;SDS011;47474;48.824;9.384;2023-04-03T06:41:23;3.93;;;2.23;;
13785;SDS011;47474;48.824;9.384;2023-04-03T06:43:53;3.23;;;2.33;;
13785;SDS011;47474;48.824;9.384;2023-04-03T06:52:55;2.57;;;2.37;;
13785;SDS011;47474;48.824;9.384;2023-04-03T06:55:21;2.20;;;2.00;;
13785;SDS011;47474;48.824;9.384;2023-04-03T06:57:49;2.40;;;2.20;;
13785;SDS011;47474;48.824;9.384;2023-04-03T07:00:16;2.47;;;2.10;;
13785;SDS011;47474;48.824;9.384;2023-04-03T07:02:43;2.80;;;1.97;;
13785;SDS011;47474;48.824;9.384;2023-04-03T07:05:10;2.70;;;2.13;;
13785;SDS011;47474;48.824;9.384;2023-04-03T07:07:37;3.70;;;2.37;;
13785;SDS011;47474;48.824;9.384;2023-04-03T07:10:04;4.73;;;2.10;;
13785;SDS011;47474;48.824;9.384;2023-04-03T07:12:32;3.13;;;2.20;;
13785;SDS011;47474;48.824;9.384;2023-04-03T07:15:00;2.60;;;2.30;;
13785;SDS011;47474;48.824;9.384;2023-04-03T07:17:27;3.40;;;2.20;;
13785;SDS011;47474;48.824;9.384;2023-04-03T07:19:54;4.73;;;2.10;;
13785;SDS011;47474;48.824;9.384;2023-04-03T07:22:20;2.70;;;2.10;;
13785;SDS011;47474;48.824;9.384;2023-04-03T07:24:47;3.97;;;2.20;;
13785;SDS011;47474;48.824;9.384;2023-04-03T07:27:14;2.93;;;2.20;;
13785;SDS011;47474;48.824;9.384;2023-04-03T07:29:40;3.23;;;2.23;;
13785;SDS011;47474;48.824;9.384;2023-04-03T07:32:09;3.47;;;2.00;;
13785;SDS011;47474;48.824;9.384;2023-04-03T07:34:36;3.03;;;1.77;;
13785;SDS011;47474;48.824;9.384;2023-04-03T07:37:03;4.70;;;2.33;;
13785;SDS011;47474;48.824;9.384;2023-04-03T07:39:29;2.53;;;2.27;;
13785;SDS011;47474;48.824;9.384;2023-04-03T07:41:56;3.23;;;2.40;;
13785;SDS011;47474;48.824;9.384;2023-04-03T07:44:23;3.03;;;2.30;;
13785;SDS011;47474;48.824;9.384;2023-04-03T07:46:49;2.77;;;2.00;;
13785;SDS011;47474;48.824;9.384;2023-04-03T07:49:18;2.43;;;2.20;;
13785;SDS011;47474;48.824;9.384;2023-04-03T07:51:44;4.47;;;2.40;;
13785;SDS011;47474;48.824;9.384;2023-04-03T07:54:11;2.90;;;2.10;;
13785;SDS011;47474;48.824;9.384;2023-04-03T07:56:38;2.20;;;2.00;;
13785;SDS011;47474;48.824;9.384;2023-04-03T07:59:04;3.40;;;2.40;;
13785;SDS011;47474;48.824;9.384;2023-04-03T08:01:31;2.40;;;2.13;;
13785;SDS011;47474;48.824;9.384;2023-04-03T08:03:58;2.40;;;2.20;;
13785;SDS011;47474;48.824;9.384;2023-04-03T08:06:26;2.73;;;2.13;;
13785;SDS011;47474;48.824;9.384;2023-04-03T08:08:54;3.73;;;1.97;;
13785;SDS011;47474;48.824;9.384;2023-04-03T08:11:21;3.73;;;2.30;;
13785;SDS011;47474;48.824;9.384;2023-04-03T08:13:48;3.73;;;2.17;;
13785;SDS011;47474;48.824;9.384;2023-04-03T08:16:16;3.53;;;2.30;;
13785;SDS011;47474;48.824;9.384;2023-04-03T08:18:43;4.60;;;2.30;;
13785;SDS011;47474;48.824;9.384;2023-04-03T08:21:10;2.53;;;2.33;;
13785;SDS011;47474;48.824;9.384;2023-04-03T08:23:39;2.50;;;2.20;;
13785;SDS011;47474;48.824;9.384;2023-04-03T08:26:07;2.90;;;2.23;;
13785;SDS011;47474;48.824;9.384;2023-04-03T08:28:35;4.53;;;2.40;;
13785;SDS011;47474;48.824;9.384;2023-04-03T08:31:02;3.53;;;2.43;;
13785;SDS011;47474;48.824;9.384;2023-04-03T08:33:30;3.20;;;2.60;;
13785;SDS011;47474;48.824;9.384;2023-04-03T08:35:57;3.30;;;2.60;;
13785;SDS011;47474;48.824;9.384;2023-04-03T08:38:24;4.47;;;2.70;;
13785;SDS011;47474;48.824;9.384;2023-04-03T08:41:00;4.03;;;2.17;;
13785;SDS011;47474;48.824;9.384;2023-04-03T08:43:30;2.23;;;2.03;;
13785;SDS011;47474;48.824;9.384;2023-04-03T08:46:02;2.20;;;2.00;;
13785;SDS011;47474;48.824;9.384;2023-04-03T08:48:32;2.90;;;2.20;;
13785;SDS011;47474;48.824;9.384;2023-04-03T08:51:00;2.43;;;2.10;;
13785;SDS011;47474;48.824;9.384;2023-04-03T08:53:30;3.40;;;2.27;;
13785;SDS011;47474;48.824;9.384;2023-04-03T08:56:02;2.43;;;2.13;;
13785;SDS011;47474;48.824;9.384;2023-04-03T08:58:30;3.20;;;2.43;;
13785;SDS011;47474;48.824;9.384;2023-04-03T09:00:58;2.83;;;2.20;;
13785;SDS011;47474;48.824;9.384;2023-04-03T09:03:29;4.07;;;2.37;;
13785;SDS011;47474;48.824;9.384;2023-04-03T09:05:57;4.47;;;2.47;;
13785;SDS011;47474;48.824;9.384;2023-04-03T09:08:27;2.73;;;2.43;;
13785;SDS011;47474;48.824;9.384;2023-04-03T09:10:58;3.20;;;2.07;;
13785;SDS011;47474;48.824;9.384;2023-04-03T09:13:34;2.50;;;2.30;;
13785;SDS011;47474;48.824;9.384;2023-04-03T09:16:03;3.60;;;2.40;;
13785;SDS011;47474;48.824;9.384;2023-04-03T09:18:41;3.43;;;2.30;;
13785;SDS011;47474;48.824;9.384;2023-04-03T09:21:13;2.73;;;2.10;;
13785;SDS011;47474;48.824;9.384;2023-04-03T09:23:44;2.10;;;1.90;;
13785;SDS011;47474;48.824;9.384;2023-04-03T09:26:15;3.77;;;1.97;;
13785;SDS011;47474;48.824;9.384;2023-04-03T09:28:44;2.43;;;1.87;;
13785;SDS011;47474;48.824;9.384;2023-04-03T09:31:14;2.83;;;2.33;;
13785;SDS011;47474;48.824;9.384;2023-04-03T09:33:45;3.40;;;2.20;;
13785;SDS011;47474;48.824;9.384;2023-04-03T09:36:12;2.30;;;1.77;;
13785;SDS011;47474;48.824;9.384;2023-04-03T09:38:39;3.03;;;2.20;;
13785;SDS011;47474;48.824;9.384;2023-04-03T09:41:06;2.43;;;2.07;;
13785;SDS011;47474;48.824;9.384;2023-04-03T09:43:35;2.20;;;2.00;;
13785;SDS011;47474;48.824;9.384;2023-04-03T09:46:17;3.27;;;1.73;;
13785;SDS011;47474;48.824;9.384;2023-04-03T09:48:51;3.80;;;1.80;;
13785;SDS011;47474;48.824;9.384;2023-04-03T09:51:18;2.33;;;1.97;;
13785;SDS011;47474;48.824;9.384;2023-04-03T09:53:44;3.07;;;1.50;;
13785;SDS011;47474;48.824;9.384;2023-04-03T09:56:18;3.43;;;2.00;;
13785;SDS011;47474;48.824;9.384;2023-04-03T09:58:49;2.37;;;2.13;;
13785;SDS011;47474;48.824;9.384;2023-04-03T10:01:23;2.63;;;2.20;;
13785;SDS011;47474;48.824;9.384;2023-04-03T10:04:03;1.83;;;1.70;;
13785;SDS011;47474;48.824;9.384;2023-04-03T10:06:33;2.93;;;1.83;;
13785;SDS011;47474;48.824;9.384;2023-04-03T10:09:02;4.20;;;1.90;;
13785;SDS011;47474;48.824;9.384;2023-04-03T10:11:30;1.93;;;1.50;;
13785;SDS011;47474;48.824;9.384;2023-04-03T10:13:58;1.90;;;1.80;;
13785;SDS011;47474;48.824;9.384;2023-04-03T10:16:27;4.40;;;2.10;;
13785;SDS011;47474;48.824;9.384;2023-04-03T10:21:53;1.90;;;1.70;;
13785;SDS011;47474;48.824;9.384;2023-04-03T10:24:23;2.43;;;1.70;;
13785;SDS011;47474;48.824;9.384;2023-04-03T10:26:54;1.90;;;1.70;;
13785;SDS011;47474;48.824;9.384;2023-04-03T10:29:29;1.60;;;1.40;;
13785;SDS011;47474;48.824;9.384;2023-04-03T10:32:09;1.87;;;1.57;;
13785;SDS011;47474;48.824;9.384;2023-04-03T10:34:44;2.30;;;2.10;;
13785;SDS011;47474;48.824;9.384;2023-04-03T10:37:12;2.50;;;1.80;;
13785;SDS011;47474;48.824;9.384;2023-04-03T10:39:43;1.60;;;1.50;;
13785;SDS011;47474;48.824;9.384;2023-04-03T10:42:15;3.67;;;1.93;;
13785;SDS011;47474;48.824;9.384;2023-04-03T10:44:51;1.67;;;1.57;;
13785;SDS011;47474;48.824;9.384;2023-04-03T10:47:24;2.10;;;1.57;;
13785;SDS011;47474;48.824;9.384;2023-04-03T10:49:56;2.53;;;1.60;;
13785;SDS011;47474;48.824;9.384;2023-04-03T10:52:28;1.80;;;1.30;;
13785;SDS011;47474;48.824;9.384;2023-04-03T10:55:00;4.20;;;1.60;;
13785;SDS011;47474;48.824;9.384;2023-04-03T10:57:31;3.47;;;1.80;;
13785;SDS011;47474;48.824;9.384;2023-04-03T11:00:01;2.73;;;1.40;;
13785;SDS011;47474;48.824;9.384;2023-04-03T11:02:30;1.70;;;1.30;;
13785;SDS011;47474;48.824;9.384;2023-04-03T11:04:59;2.97;;;2.23;;
13785;SDS011;47474;48.824;9.384;2023-04-03T11:07:28;1.30;;;1.20;;
13785;SDS011;47474;48.824;9.384;2023-04-03T11:09:57;1.60;;;1.40;;
13785;SDS011;47474;48.824;9.384;2023-04-03T11:12:31;2.77;;;1.50;;
13785;SDS011;47474;48.824;9.384;2023-04-03T11:15:04;2.53;;;1.63;;
13785;SDS011;47474;48.824;9.384;2023-04-03T11:17:33;2.77;;;1.40;;
13785;SDS011;47474;48.824;9.384;2023-04-03T11:20:03;1.93;;;1.50;;
13785;SDS011;47474;48.824;9.384;2023-04-03T11:22:34;1.60;;;1.40;;
13785;SDS011;47474;48.824;9.384;2023-04-03T11:25:04;3.07;;;1.80;;
13785;SDS011;47474;48.824;9.384;2023-04-03T11:27:33;1.67;;;1.50;;
13785;SDS011;47474;48.824;9.384;2023-04-03T11:30:07;2.07;;;1.60;;
13785;SDS011;47474;48.824;9.384;2023-04-03T11:32:50;3.37;;;1.53;;
13785;SDS011;47474;48.824;9.384;2023-04-03T11:35:21;3.23;;;1.80;;
13785;SDS011;47474;48.824;9.384;2023-04-03T11:37:49;1.23;;;1.10;;
13785;SDS011;47474;48.824;9.384;2023-04-03T11:40:19;3.60;;;1.60;;
13785;SDS011;47474;48.824;9.384;2023-04-03T11:42:49;1.67;;;1.57;;
13785;SDS011;47474;48.824;9.384;2023-04-03T12:03:30;3.43;;;1.80;;
13785;SDS011;47474;48.824;9.384;2023-04-03T12:09:21;1.57;;;1.33;;
13785;SDS011;47474;48.824;9.384;2023-04-03T12:11:49;1.83;;;1.50;;
13785;SDS011;47474;48.824;9.384;2023-04-03T12:14:15;2.27;;;1.40;;
13785;SDS011;47474;48.824;9.384;2023-04-03T12:16:44;2.10;;;1.53;;
13785;SDS011;47474;48.824;9.384;2023-04-03T12:19:29;2.10;;;1.90;;
13785;SDS011;47474;48.824;9.384;2023-04-03T12:22:10;3.17;;;1.60;;
13785;SDS011;47474;48.824;9.384;2023-04-03T12:24:38;1.90;;;1.60;;
13785;SDS011;47474;48.824;9.384;2023-04-03T12:27:11;2.87;;;2.00;;
13785;SDS011;47474;48.824;9.384;2023-04-03T12:29:45;3.97;;;1.60;;
13785;SDS011;47474;48.824;9.384;2023-04-03T12:32:17;1.83;;;1.50;;
13785;SDS011;47474;48.824;9.384;2023-04-03T12:34:54;2.63;;;2.07;;
13785;SDS011;47474;48.824;9.384;2023-04-03T12:37:38;2.73;;;1.43;;
13785;SDS011;47474;48.824;9.384;2023-04-03T12:40:09;2.20;;;1.63;;
13785;SDS011;47474;48.824;9.384;2023-04-03T12:42:44;1.97;;;1.60;;
13785;SDS011;47474;48.824;9.384;2023-04-03T12:45:22;3.37;;;1.90;;
13785;SDS011;47474;48.824;9.384;2023-04-03T12:47:52;2.60;;;1.60;;
13785;SDS011;47474;48.824;9.384;2023-04-03T12:50:23;2.90;;;1.97;;
13785;SDS011;47474;48.824;9.384;2023-04-03T12:52:52;2.00;;;1.57;;
13785;SDS011;47474;48.824;9.384;2023-04-03T12:55:21;3.53;;;1.60;;
13785;SDS011;47474;48.824;9.384;2023-04-03T12:57:48;1.60;;;1.50;;
13785;SDS011;47474;48.824;9.384;2023-04-03T13:00:19;3.97;;;2.37;;
13785;SDS011;47474;48.824;9.384;2023-04-03T13:02:59;2.10;;;1.67;;
13785;SDS011;47474;48.824;9.384;2023-04-03T13:05:26;4.23;;;1.80;;
13785;SDS011;47474;48.824;9.384;2023-04-03T13:07:54;2.67;;;1.60;;
13785;SDS011;47474;48.824;9.384;2023-04-03T13:10:24;1.90;;;1.60;;
13785;SDS011;47474;48.824;9.384;2023-04-03T13:12:52;1.63;;;1.50;;
13785;SDS011;47474;48.824;9.384;2023-04-03T13:15:20;2.10;;;1.70;;
13785;SDS011;47474;48.824;9.384;2023-04-03T13:17:48;2.17;;;1.57;;
13785;SDS011;47474;48.824;9.384;2023-04-03T13:20:19;2.93;;;1.70;;
13785;SDS011;47474;48.824;9.384;2023-04-03T13:22:49;3.07;;;2.10;;
13785;SDS011;47474;48.824;9.384;2023-04-03T13:25:20;3.23;;;1.70;;
13785;SDS011;47474;48.824;9.384;2023-04-03T13:27:49;2.57;;;1.80;;
13785;SDS011;47474;48.824;9.384;2023-04-03T13:30:21;1.50;;;1.40;;
13785;SDS011;47474;48.824;9.384;2023-04-03T13:32:51;3.37;;;1.90;;
13785;SDS011;47474;48.824;9.384;2023-04-03T13:35:26;3.47;;;1.63;;
13785;SDS011;47474;48.824;9.384;2023-04-03T13:37:54;2.17;;;1.77;;
13785;SDS011;47474;48.824;9.384;2023-04-03T13:40:22;4.70;;;1.80;;
13785;SDS011;47474;48.824;9.384;2023-04-03T13:42:58;3.33;;;1.80;;
13785;SDS011;47474;48.824;9.384;2023-04-03T13:45:26;3.07;;;1.80;;
13785;SDS011;47474;48.824;9.384;2023-04-03T13:48:06;3.57;;;1.90;;
13785;SDS011;47474;48.824;9.384;2023-04-03T13:50:50;2.63;;;1.60;;
13785;SDS011;47474;48.824;9.384;2023-04-03T13:53:19;1.93;;;1.70;;
13785;SDS011;47474;48.824;9.384;2023-04-03T13:55:53;3.67;;;1.87;;
13785;SDS011;47474;48.824;9.384;2023-04-03T13:58:22;2.50;;;1.87;;
13785;SDS011;47474;48.824;9.384;2023-04-03T14:00:51;2.03;;;1.60;;
13785;SDS011;47474;48.824;9.384;2023-04-03T14:03:19;2.70;;;2.00;;
13785;SDS011;47474;48.824;9.384;2023-04-03T14:05:47;2.20;;;1.80;;
13785;SDS011;47474;48.824;9.384;2023-04-03T14:08:15;2.60;;;1.77;;
13785;SDS011;47474;48.824;9.384;2023-04-03T14:10:42;2.33;;;1.87;;
13785;SDS011;47474;48.824;9.384;2023-04-03T14:13:11;1.57;;;1.47;;
13785;SDS011;47474;48.824;9.384;2023-04-03T14:15:38;3.23;;;1.83;;
13785;SDS011;47474;48.824;9.384;2023-04-03T14:18:05;1.90;;;1.50;;
13785;SDS011;47474;48.824;9.384;2023-04-03T14:20:31;2.00;;;1.80;;
13785;SDS011;47474;48.824;9.384;2023-04-03T14:22:58;1.70;;;1.60;;
13785;SDS011;47474;48.824;9.384;2023-04-03T14:25:26;2.27;;;1.40;;
13785;SDS011;47474;48.824;9.384;2023-04-03T14:27:53;2.30;;;1.70;;
13785;SDS011;47474;48.824;9.384;2023-04-03T14:30:21;3.23;;;1.90;;
13785;SDS011;47474;48.824;9.384;2023-04-03T14:32:49;2.23;;;1.60;;
13785;SDS011;47474;48.824;9.384;2023-04-03T14:35:17;2.50;;;1.63;;
13785;SDS011;47474;48.824;9.384;2023-04-03T14:37:44;3.37;;;1.80;;
13785;SDS011;47474;48.824;9.384;2023-04-03T14:40:12;3.00;;;1.70;;
13785;SDS011;47474;48.824;9.384;2023-04-03T14:42:41;2.53;;;2.03;;
13785;SDS011;47474;48.824;9.384;2023-04-03T14:45:08;2.40;;;1.63;;
13785;SDS011;47474;48.824;9.384;2023-04-03T14:47:38;3.03;;;1.63;;
13785;SDS011;47474;48.824;9.384;2023-04-03T14:50:07;1.80;;;1.60;;
13785;SDS011;47474;48.824;9.384;2023-04-03T14:52:38;1.70;;;1.60;;
13785;SDS011;47474;48.824;9.384;2023-04-03T14:55:05;1.50;;;1.40;;
13785;SDS011;47474;48.824;9.384;2023-04-03T14:57:32;2.60;;;1.67;;
13785;SDS011;47474;48.824;9.384;2023-04-03T14:59:59;2.00;;;1.80;;
13785;SDS011;47474;48.824;9.384;2023-04-03T15:02:28;2.37;;;1.87;;
13785;SDS011;47474;48.824;9.384;2023-04-03T15:04:56;1.47;;;1.37;;
13785;SDS011;47474;48.824;9.384;2023-04-03T15:07:23;3.10;;;1.80;;
13785;SDS011;47474;48.824;9.384;2023-04-03T15:09:51;2.70;;;1.73;;
13785;SDS011;47474;48.824;9.384;2023-04-03T15:12:17;2.23;;;1.63;;
13785;SDS011;47474;48.824;9.384;2023-04-03T15:14:44;1.63;;;1.40;;
13785;SDS011;47474;48.824;9.384;2023-04-03T15:17:14;2.33;;;1.90;;
13785;SDS011;47474;48.824;9.384;2023-04-03T15:19:42;2.77;;;1.60;;
13785;SDS011;47474;48.824;9.384;2023-04-03T15:22:10;2.03;;;1.63;;
13785;SDS011;47474;48.824;9.384;2023-04-03T15:24:39;2.10;;;1.93;;
13785;SDS011;47474;48.824;9.384;2023-04-03T15:27:06;2.80;;;1.67;;
13785;SDS011;47474;48.824;9.384;2023-04-03T15:29:32;2.50;;;1.90;;
13785;SDS011;47474;48.824;9.384;2023-04-03T15:31:59;2.43;;;1.40;;